sensor_id;sensor_type;location;lat;lon;timestamp;temperature;humidity
5808;DHT22;2930;42.678;23.312;2022-11-24T00:02:08;8.90;83.60
5808;DHT22;2930;42.678;23.312;2022-11-24T00:04:34;8.90;83.40
5808;DHT22;2930;42.678;23.312;2022-11-24T00:07:00;8.90;83.90
5808;DHT22;2930;42.678;23.312;2022-11-24T00:09:25;8.90;84.30
5808;DHT22;2930;42.678;23.312;2022-11-24T00:11:51;8.80;84.40
5808;DHT22;2930;42.678;23.312;2022-11-24T00:14:17;8.80;84.50
5808;DHT22;2930;42.678;23.312;2022-11-24T00:16:42;8.80;84.50
5808;DHT22;2930;42.678;23.312;2022-11-24T00:19:08;8.80;84.60
5808;DHT22;2930;42.678;23.312;2022-11-24T00:21:35;8.70;84.70
5808;DHT22;2930;42.678;23.312;2022-11-24T00:24:02;8.70;85.00
5808;DHT22;2930;42.678;23.312;2022-11-24T00:26:29;8.70;84.70
5808;DHT22;2930;42.678;23.312;2022-11-24T00:28:58;8.60;84.10
5808;DHT22;2930;42.678;23.312;2022-11-24T00:31:32;8.60;83.90
5808;DHT22;2930;42.678;23.312;2022-11-24T00:34:01;8.60;84.20
5808;DHT22;2930;42.678;23.312;2022-11-24T00:36:29;8.60;83.90
5808;DHT22;2930;42.678;23.312;2022-11-24T00:38:57;8.50;83.60
5808;DHT22;2930;42.678;23.312;2022-11-24T00:41:24;8.50;83.60
5808;DHT22;2930;42.678;23.312;2022-11-24T00:43:50;8.50;85.10
5808;DHT22;2930;42.678;23.312;2022-11-24T00:46:16;8.50;84.70
5808;DHT22;2930;42.678;23.312;2022-11-24T00:48:42;8.50;84.60
5808;DHT22;2930;42.678;23.312;2022-11-24T00:51:10;8.40;84.80
5808;DHT22;2930;42.678;23.312;2022-11-24T00:53:36;8.40;85.00
5808;DHT22;2930;42.678;23.312;2022-11-24T00:56:03;8.40;85.00
5808;DHT22;2930;42.678;23.312;2022-11-24T00:58:29;8.30;85.10
5808;DHT22;2930;42.678;23.312;2022-11-24T01:01:01;8.40;85.20
5808;DHT22;2930;42.678;23.312;2022-11-24T01:03:27;8.40;85.00
5808;DHT22;2930;42.678;23.312;2022-11-24T01:05:53;8.40;85.20
5808;DHT22;2930;42.678;23.312;2022-11-24T01:08:19;8.30;85.20
5808;DHT22;2930;42.678;23.312;2022-11-24T01:10:44;8.30;84.70
5808;DHT22;2930;42.678;23.312;2022-11-24T01:13:10;8.30;85.10
5808;DHT22;2930;42.678;23.312;2022-11-24T01:15:37;8.30;85.20
5808;DHT22;2930;42.678;23.312;2022-11-24T01:18:03;8.30;85.00
5808;DHT22;2930;42.678;23.312;2022-11-24T01:20:30;8.20;84.90
5808;DHT22;2930;42.678;23.312;2022-11-24T01:22:56;8.20;85.40
5808;DHT22;2930;42.678;23.312;2022-11-24T01:25:22;8.20;85.40
5808;DHT22;2930;42.678;23.312;2022-11-24T01:27:48;8.20;85.40
5808;DHT22;2930;42.678;23.312;2022-11-24T01:30:13;8.20;85.80
5808;DHT22;2930;42.678;23.312;2022-11-24T01:32:39;8.20;85.70
5808;DHT22;2930;42.678;23.312;2022-11-24T01:35:05;8.20;85.90
5808;DHT22;2930;42.678;23.312;2022-11-24T01:37:31;8.20;85.30
5808;DHT22;2930;42.678;23.312;2022-11-24T01:39:57;8.20;85.20
5808;DHT22;2930;42.678;23.312;2022-11-24T01:42:23;8.20;85.00
5808;DHT22;2930;42.678;23.312;2022-11-24T01:47:53;8.20;85.00
5808;DHT22;2930;42.678;23.312;2022-11-24T01:50:19;8.20;84.70
5808;DHT22;2930;42.678;23.312;2022-11-24T01:52:50;8.30;84.50
5808;DHT22;2930;42.678;23.312;2022-11-24T01:55:19;8.30;84.90
5808;DHT22;2930;42.678;23.312;2022-11-24T01:57:50;8.40;85.00
5808;DHT22;2930;42.678;23.312;2022-11-24T02:00:18;8.40;84.80
5808;DHT22;2930;42.678;23.312;2022-11-24T02:02:44;8.40;84.40
5808;DHT22;2930;42.678;23.312;2022-11-24T02:05:23;8.50;84.40
5808;DHT22;2930;42.678;23.312;2022-11-24T02:07:52;8.50;84.00
5808;DHT22;2930;42.678;23.312;2022-11-24T02:10:20;8.60;85.20
5808;DHT22;2930;42.678;23.312;2022-11-24T02:12:47;8.60;84.80
5808;DHT22;2930;42.678;23.312;2022-11-24T02:15:16;8.60;84.50
5808;DHT22;2930;42.678;23.312;2022-11-24T02:17:42;8.60;85.10
5808;DHT22;2930;42.678;23.312;2022-11-24T02:20:09;8.70;84.70
5808;DHT22;2930;42.678;23.312;2022-11-24T02:28:12;8.70;84.60
5808;DHT22;2930;42.678;23.312;2022-11-24T02:30:39;8.70;85.00
5808;DHT22;2930;42.678;23.312;2022-11-24T02:33:05;8.80;85.20
5808;DHT22;2930;42.678;23.312;2022-11-24T02:35:31;8.80;85.10
5808;DHT22;2930;42.678;23.312;2022-11-24T02:37:57;8.80;84.80
5808;DHT22;2930;42.678;23.312;2022-11-24T02:40:26;8.80;84.40
5808;DHT22;2930;42.678;23.312;2022-11-24T02:42:56;8.80;84.60
5808;DHT22;2930;42.678;23.312;2022-11-24T02:45:22;8.80;84.50
5808;DHT22;2930;42.678;23.312;2022-11-24T02:47:49;8.80;84.60
5808;DHT22;2930;42.678;23.312;2022-11-24T02:50:15;8.80;84.80
5808;DHT22;2930;42.678;23.312;2022-11-24T02:52:40;8.80;85.30
5808;DHT22;2930;42.678;23.312;2022-11-24T02:55:06;8.80;85.30
5808;DHT22;2930;42.678;23.312;2022-11-24T02:57:32;8.80;84.80
5808;DHT22;2930;42.678;23.312;2022-11-24T02:59:58;8.80;84.80
5808;DHT22;2930;42.678;23.312;2022-11-24T03:02:24;8.80;84.30
5808;DHT22;2930;42.678;23.312;2022-11-24T03:04:49;8.80;84.40
5808;DHT22;2930;42.678;23.312;2022-11-24T03:07:15;8.80;84.90
5808;DHT22;2930;42.678;23.312;2022-11-24T03:09:41;8.80;84.50
5808;DHT22;2930;42.678;23.312;2022-11-24T03:12:07;8.90;85.50
5808;DHT22;2930;42.678;23.312;2022-11-24T03:14:32;8.80;85.10
5808;DHT22;2930;42.678;23.312;2022-11-24T03:16:58;8.80;84.20
5808;DHT22;2930;42.678;23.312;2022-11-24T03:19:24;8.80;84.70
5808;DHT22;2930;42.678;23.312;2022-11-24T03:21:49;8.80;84.30
5808;DHT22;2930;42.678;23.312;2022-11-24T03:24:15;8.80;84.30
5808;DHT22;2930;42.678;23.312;2022-11-24T03:26:41;8.80;84.20
5808;DHT22;2930;42.678;23.312;2022-11-24T03:29:07;8.80;84.10
5808;DHT22;2930;42.678;23.312;2022-11-24T03:31:33;8.80;84.00
5808;DHT22;2930;42.678;23.312;2022-11-24T03:33:59;8.90;84.30
5808;DHT22;2930;42.678;23.312;2022-11-24T03:36:24;8.90;84.30
5808;DHT22;2930;42.678;23.312;2022-11-24T03:38:50;8.90;84.50
5808;DHT22;2930;42.678;23.312;2022-11-24T03:41:16;8.90;84.80
5808;DHT22;2930;42.678;23.312;2022-11-24T03:43:41;8.90;84.90
5808;DHT22;2930;42.678;23.312;2022-11-24T03:46:07;8.90;85.00
5808;DHT22;2930;42.678;23.312;2022-11-24T03:48:33;9.00;85.20
5808;DHT22;2930;42.678;23.312;2022-11-24T03:51:00;8.90;85.00
5808;DHT22;2930;42.678;23.312;2022-11-24T03:53:29;8.90;85.00
5808;DHT22;2930;42.678;23.312;2022-11-24T03:55:55;9.00;84.80
5808;DHT22;2930;42.678;23.312;2022-11-24T03:58:21;8.90;84.70
5808;DHT22;2930;42.678;23.312;2022-11-24T04:00:48;8.90;84.40
5808;DHT22;2930;42.678;23.312;2022-11-24T04:03:14;8.90;84.60
5808;DHT22;2930;42.678;23.312;2022-11-24T04:05:40;9.00;85.20
5808;DHT22;2930;42.678;23.312;2022-11-24T04:08:06;9.00;85.00
5808;DHT22;2930;42.678;23.312;2022-11-24T04:10:34;8.90;84.40
5808;DHT22;2930;42.678;23.312;2022-11-24T04:13:02;8.90;84.20
5808;DHT22;2930;42.678;23.312;2022-11-24T04:15:28;9.00;84.50
5808;DHT22;2930;42.678;23.312;2022-11-24T04:17:54;8.90;84.20
5808;DHT22;2930;42.678;23.312;2022-11-24T04:20:21;8.90;84.60
5808;DHT22;2930;42.678;23.312;2022-11-24T04:22:48;9.00;84.60
5808;DHT22;2930;42.678;23.312;2022-11-24T04:25:15;9.00;85.50
5808;DHT22;2930;42.678;23.312;2022-11-24T04:27:42;9.00;85.60
5808;DHT22;2930;42.678;23.312;2022-11-24T04:30:08;9.00;85.30
5808;DHT22;2930;42.678;23.312;2022-11-24T04:32:34;9.00;85.40
5808;DHT22;2930;42.678;23.312;2022-11-24T04:35:00;8.90;85.80
5808;DHT22;2930;42.678;23.312;2022-11-24T04:37:26;8.90;86.00
5808;DHT22;2930;42.678;23.312;2022-11-24T04:39:51;8.80;86.20
5808;DHT22;2930;42.678;23.312;2022-11-24T04:42:19;8.80;86.30
5808;DHT22;2930;42.678;23.312;2022-11-24T04:44:45;8.80;86.50
5808;DHT22;2930;42.678;23.312;2022-11-24T04:47:17;8.70;86.60
5808;DHT22;2930;42.678;23.312;2022-11-24T04:49:46;8.70;86.70
5808;DHT22;2930;42.678;23.312;2022-11-24T04:52:12;8.70;86.90
5808;DHT22;2930;42.678;23.312;2022-11-24T04:54:37;8.60;87.40
5808;DHT22;2930;42.678;23.312;2022-11-24T04:57:03;8.60;87.20
5808;DHT22;2930;42.678;23.312;2022-11-24T04:59:29;8.50;87.30
5808;DHT22;2930;42.678;23.312;2022-11-24T05:01:54;8.50;86.90
5808;DHT22;2930;42.678;23.312;2022-11-24T05:04:20;8.50;86.80
5808;DHT22;2930;42.678;23.312;2022-11-24T05:06:46;8.50;87.20
5808;DHT22;2930;42.678;23.312;2022-11-24T05:09:16;8.50;87.60
5808;DHT22;2930;42.678;23.312;2022-11-24T05:11:42;8.50;87.30
5808;DHT22;2930;42.678;23.312;2022-11-24T05:14:08;8.50;87.20
5808;DHT22;2930;42.678;23.312;2022-11-24T05:16:33;8.50;87.10
5808;DHT22;2930;42.678;23.312;2022-11-24T05:19:00;8.50;86.90
5808;DHT22;2930;42.678;23.312;2022-11-24T05:21:26;8.50;86.60
5808;DHT22;2930;42.678;23.312;2022-11-24T05:23:52;8.60;86.40
5808;DHT22;2930;42.678;23.312;2022-11-24T05:26:17;8.60;86.40
5808;DHT22;2930;42.678;23.312;2022-11-24T05:28:43;8.60;86.20
5808;DHT22;2930;42.678;23.312;2022-11-24T05:31:09;8.60;86.10
5808;DHT22;2930;42.678;23.312;2022-11-24T05:33:35;8.70;86.50
5808;DHT22;2930;42.678;23.312;2022-11-24T05:36:03;8.70;86.90
5808;DHT22;2930;42.678;23.312;2022-11-24T05:38:29;8.80;87.00
5808;DHT22;2930;42.678;23.312;2022-11-24T05:41:00;8.80;86.70
5808;DHT22;2930;42.678;23.312;2022-11-24T05:43:26;8.80;86.50
5808;DHT22;2930;42.678;23.312;2022-11-24T05:45:51;8.80;86.30
5808;DHT22;2930;42.678;23.312;2022-11-24T05:48:17;8.80;86.10
5808;DHT22;2930;42.678;23.312;2022-11-24T05:50:43;8.80;86.50
5808;DHT22;2930;42.678;23.312;2022-11-24T05:53:11;8.90;86.80
5808;DHT22;2930;42.678;23.312;2022-11-24T05:55:39;8.90;86.50
5808;DHT22;2930;42.678;23.312;2022-11-24T05:58:06;8.90;86.40
5808;DHT22;2930;42.678;23.312;2022-11-24T06:00:33;8.90;86.40
5808;DHT22;2930;42.678;23.312;2022-11-24T06:03:00;8.90;86.30
5808;DHT22;2930;42.678;23.312;2022-11-24T06:05:27;9.00;86.40
5808;DHT22;2930;42.678;23.312;2022-11-24T06:07:53;9.00;86.30
5808;DHT22;2930;42.678;23.312;2022-11-24T06:10:20;9.00;86.30
5808;DHT22;2930;42.678;23.312;2022-11-24T06:12:46;9.10;86.30
5808;DHT22;2930;42.678;23.312;2022-11-24T06:15:12;9.10;86.30
5808;DHT22;2930;42.678;23.312;2022-11-24T06:17:38;9.10;86.30
5808;DHT22;2930;42.678;23.312;2022-11-24T06:20:05;9.10;86.20
5808;DHT22;2930;42.678;23.312;2022-11-24T06:22:32;9.20;86.10
5808;DHT22;2930;42.678;23.312;2022-11-24T06:24:58;9.20;86.00
5808;DHT22;2930;42.678;23.312;2022-11-24T06:27:23;9.30;86.20
5808;DHT22;2930;42.678;23.312;2022-11-24T06:29:49;9.30;86.30
5808;DHT22;2930;42.678;23.312;2022-11-24T06:32:15;9.30;86.30
5808;DHT22;2930;42.678;23.312;2022-11-24T06:34:41;9.40;86.20
5808;DHT22;2930;42.678;23.312;2022-11-24T06:37:07;9.40;86.50
5808;DHT22;2930;42.678;23.312;2022-11-24T06:39:33;9.50;86.50
5808;DHT22;2930;42.678;23.312;2022-11-24T06:41:59;9.50;86.40
5808;DHT22;2930;42.678;23.312;2022-11-24T06:44:25;9.50;86.20
5808;DHT22;2930;42.678;23.312;2022-11-24T06:46:51;9.60;86.60
5808;DHT22;2930;42.678;23.312;2022-11-24T06:49:16;9.60;86.50
5808;DHT22;2930;42.678;23.312;2022-11-24T06:51:42;9.70;86.70
5808;DHT22;2930;42.678;23.312;2022-11-24T06:54:09;9.70;86.20
5808;DHT22;2930;42.678;23.312;2022-11-24T06:56:35;9.70;86.10
5808;DHT22;2930;42.678;23.312;2022-11-24T06:59:01;9.70;86.10
5808;DHT22;2930;42.678;23.312;2022-11-24T07:01:28;9.70;86.30
5808;DHT22;2930;42.678;23.312;2022-11-24T07:03:55;9.70;86.10
5808;DHT22;2930;42.678;23.312;2022-11-24T07:06:22;9.70;85.90
5808;DHT22;2930;42.678;23.312;2022-11-24T07:08:49;9.80;85.60
5808;DHT22;2930;42.678;23.312;2022-11-24T07:11:18;9.80;86.00
5808;DHT22;2930;42.678;23.312;2022-11-24T07:13:45;9.80;85.70
5808;DHT22;2930;42.678;23.312;2022-11-24T07:16:16;9.80;85.60
5808;DHT22;2930;42.678;23.312;2022-11-24T07:18:43;9.80;85.50
5808;DHT22;2930;42.678;23.312;2022-11-24T07:21:09;9.80;85.40
5808;DHT22;2930;42.678;23.312;2022-11-24T07:23:34;9.90;85.40
5808;DHT22;2930;42.678;23.312;2022-11-24T07:26:04;9.90;85.60
5808;DHT22;2930;42.678;23.312;2022-11-24T07:28:31;9.90;85.00
5808;DHT22;2930;42.678;23.312;2022-11-24T07:30:56;9.90;85.00
5808;DHT22;2930;42.678;23.312;2022-11-24T07:33:23;9.90;85.00
5808;DHT22;2930;42.678;23.312;2022-11-24T07:35:53;9.90;85.00
5808;DHT22;2930;42.678;23.312;2022-11-24T07:38:20;9.90;85.00
5808;DHT22;2930;42.678;23.312;2022-11-24T07:40:45;9.80;85.00
5808;DHT22;2930;42.678;23.312;2022-11-24T07:43:11;9.80;85.10
5808;DHT22;2930;42.678;23.312;2022-11-24T07:45:37;9.80;85.20
5808;DHT22;2930;42.678;23.312;2022-11-24T07:48:03;9.70;85.50
5808;DHT22;2930;42.678;23.312;2022-11-24T07:50:29;9.70;85.50
5808;DHT22;2930;42.678;23.312;2022-11-24T07:52:54;9.70;85.60
5808;DHT22;2930;42.678;23.312;2022-11-24T07:55:20;9.70;85.90
5808;DHT22;2930;42.678;23.312;2022-11-24T07:57:46;9.60;86.00
5808;DHT22;2930;42.678;23.312;2022-11-24T08:00:12;9.50;86.20
5808;DHT22;2930;42.678;23.312;2022-11-24T08:02:38;9.30;86.40
5808;DHT22;2930;42.678;23.312;2022-11-24T08:05:04;9.20;86.70
5808;DHT22;2930;42.678;23.312;2022-11-24T08:07:30;9.00;87.10
5808;DHT22;2930;42.678;23.312;2022-11-24T08:09:55;9.00;87.30
5808;DHT22;2930;42.678;23.312;2022-11-24T08:12:21;8.90;87.00
5808;DHT22;2930;42.678;23.312;2022-11-24T08:14:50;9.00;87.10
5808;DHT22;2930;42.678;23.312;2022-11-24T08:17:16;8.90;87.80
5808;DHT22;2930;42.678;23.312;2022-11-24T08:19:42;8.80;87.40
5808;DHT22;2930;42.678;23.312;2022-11-24T08:22:08;8.80;87.60
5808;DHT22;2930;42.678;23.312;2022-11-24T08:24:34;8.80;87.70
5808;DHT22;2930;42.678;23.312;2022-11-24T08:27:00;8.70;87.80
5808;DHT22;2930;42.678;23.312;2022-11-24T08:29:29;8.70;88.00
5808;DHT22;2930;42.678;23.312;2022-11-24T08:31:56;8.50;88.00
5808;DHT22;2930;42.678;23.312;2022-11-24T08:34:23;8.60;87.80
5808;DHT22;2930;42.678;23.312;2022-11-24T08:36:50;8.40;88.30
5808;DHT22;2930;42.678;23.312;2022-11-24T08:39:16;8.40;88.10
5808;DHT22;2930;42.678;23.312;2022-11-24T08:41:42;8.30;88.80
5808;DHT22;2930;42.678;23.312;2022-11-24T08:44:07;8.30;88.60
5808;DHT22;2930;42.678;23.312;2022-11-24T08:46:35;8.10;89.00
5808;DHT22;2930;42.678;23.312;2022-11-24T08:49:02;8.00;89.20
5808;DHT22;2930;42.678;23.312;2022-11-24T08:51:28;8.00;89.20
5808;DHT22;2930;42.678;23.312;2022-11-24T08:53:55;7.90;89.70
5808;DHT22;2930;42.678;23.312;2022-11-24T08:56:23;7.90;89.30
5808;DHT22;2930;42.678;23.312;2022-11-24T08:58:49;7.80;89.20
5808;DHT22;2930;42.678;23.312;2022-11-24T09:01:16;7.80;89.10
5808;DHT22;2930;42.678;23.312;2022-11-24T09:03:43;7.80;88.70
5808;DHT22;2930;42.678;23.312;2022-11-24T09:06:09;7.80;88.90
5808;DHT22;2930;42.678;23.312;2022-11-24T09:08:36;7.70;89.10
5808;DHT22;2930;42.678;23.312;2022-11-24T09:11:08;7.70;88.90
5808;DHT22;2930;42.678;23.312;2022-11-24T09:13:35;7.70;88.70
5808;DHT22;2930;42.678;23.312;2022-11-24T09:16:10;7.70;88.90
5808;DHT22;2930;42.678;23.312;2022-11-24T09:18:36;7.70;88.40
5808;DHT22;2930;42.678;23.312;2022-11-24T09:23:32;7.70;88.10
5808;DHT22;2930;42.678;23.312;2022-11-24T09:26:05;7.60;87.60
5808;DHT22;2930;42.678;23.312;2022-11-24T09:28:31;7.60;87.60
5808;DHT22;2930;42.678;23.312;2022-11-24T09:31:01;7.70;87.50
5808;DHT22;2930;42.678;23.312;2022-11-24T09:33:27;7.70;86.90
5808;DHT22;2930;42.678;23.312;2022-11-24T09:35:53;7.70;86.90
5808;DHT22;2930;42.678;23.312;2022-11-24T09:38:18;7.70;86.80
5808;DHT22;2930;42.678;23.312;2022-11-24T09:40:44;7.80;86.60
5808;DHT22;2930;42.678;23.312;2022-11-24T09:46:59;7.80;86.20
5808;DHT22;2930;42.678;23.312;2022-11-24T09:52:34;7.70;85.80
5808;DHT22;2930;42.678;23.312;2022-11-24T09:55:04;7.50;85.10
5808;DHT22;2930;42.678;23.312;2022-11-24T09:57:41;7.50;85.40
5808;DHT22;2930;42.678;23.312;2022-11-24T10:00:12;7.40;85.60
5808;DHT22;2930;42.678;23.312;2022-11-24T10:02:38;7.40;86.00
5808;DHT22;2930;42.678;23.312;2022-11-24T10:05:04;7.30;86.20
5808;DHT22;2930;42.678;23.312;2022-11-24T10:07:43;7.20;86.10
5808;DHT22;2930;42.678;23.312;2022-11-24T10:10:42;7.10;86.50
5808;DHT22;2930;42.678;23.312;2022-11-24T10:18:36;7.00;86.30
5808;DHT22;2930;42.678;23.312;2022-11-24T10:26:55;6.80;86.40
5808;DHT22;2930;42.678;23.312;2022-11-24T10:29:40;6.80;86.50
5808;DHT22;2930;42.678;23.312;2022-11-24T10:32:25;6.80;86.30
5808;DHT22;2930;42.678;23.312;2022-11-24T10:34:56;6.70;86.30
5808;DHT22;2930;42.678;23.312;2022-11-24T10:37:47;6.80;86.20
5808;DHT22;2930;42.678;23.312;2022-11-24T10:40:41;6.70;86.00
5808;DHT22;2930;42.678;23.312;2022-11-24T10:43:09;6.80;86.00
5808;DHT22;2930;42.678;23.312;2022-11-24T10:45:37;6.80;85.90
5808;DHT22;2930;42.678;23.312;2022-11-24T10:48:17;6.70;85.60
5808;DHT22;2930;42.678;23.312;2022-11-24T10:50:44;6.70;85.60
5808;DHT22;2930;42.678;23.312;2022-11-24T10:53:16;6.70;85.30
5808;DHT22;2930;42.678;23.312;2022-11-24T11:00:52;6.70;85.30
5808;DHT22;2930;42.678;23.312;2022-11-24T11:06:04;6.70;84.80
5808;DHT22;2930;42.678;23.312;2022-11-24T11:08:33;6.80;84.60
5808;DHT22;2930;42.678;23.312;2022-11-24T11:18:55;7.00;84.20
5808;DHT22;2930;42.678;23.312;2022-11-24T11:21:39;7.10;84.10
5808;DHT22;2930;42.678;23.312;2022-11-24T11:24:13;7.20;83.90
5808;DHT22;2930;42.678;23.312;2022-11-24T11:26:39;7.10;83.80
5808;DHT22;2930;42.678;23.312;2022-11-24T11:31:33;7.20;83.20
5808;DHT22;2930;42.678;23.312;2022-11-24T11:34:04;7.10;83.00
5808;DHT22;2930;42.678;23.312;2022-11-24T11:36:48;7.20;83.00
5808;DHT22;2930;42.678;23.312;2022-11-24T11:39:37;7.10;82.80
5808;DHT22;2930;42.678;23.312;2022-11-24T11:45:19;7.10;83.00
5808;DHT22;2930;42.678;23.312;2022-11-24T11:50:34;7.10;82.70
5808;DHT22;2930;42.678;23.312;2022-11-24T11:55:58;7.20;82.90
5808;DHT22;2930;42.678;23.312;2022-11-24T11:58:34;7.10;82.80
5808;DHT22;2930;42.678;23.312;2022-11-24T12:32:02;7.90;79.30
5808;DHT22;2930;42.678;23.312;2022-11-24T12:50:28;7.90;78.70
5808;DHT22;2930;42.678;23.312;2022-11-24T12:55:39;8.00;78.40
5808;DHT22;2930;42.678;23.312;2022-11-24T13:03:25;8.00;77.60
5808;DHT22;2930;42.678;23.312;2022-11-24T13:05:54;8.10;78.10
5808;DHT22;2930;42.678;23.312;2022-11-24T13:08:24;8.10;79.00
5808;DHT22;2930;42.678;23.312;2022-11-24T13:10:50;8.20;78.40
5808;DHT22;2930;42.678;23.312;2022-11-24T13:13:16;8.20;78.30
5808;DHT22;2930;42.678;23.312;2022-11-24T13:18:57;8.30;77.90
5808;DHT22;2930;42.678;23.312;2022-11-24T13:53:57;7.80;77.40
5808;DHT22;2930;42.678;23.312;2022-11-24T13:56:27;7.70;77.20
5808;DHT22;2930;42.678;23.312;2022-11-24T13:58:58;7.60;77.30
5808;DHT22;2930;42.678;23.312;2022-11-24T14:01:34;7.60;77.50
5808;DHT22;2930;42.678;23.312;2022-11-24T14:04:24;7.50;77.20
5808;DHT22;2930;42.678;23.312;2022-11-24T14:09:21;7.50;77.30
5808;DHT22;2930;42.678;23.312;2022-11-24T14:14:40;7.50;77.20
5808;DHT22;2930;42.678;23.312;2022-11-24T14:19:39;7.60;77.40
5808;DHT22;2930;42.678;23.312;2022-11-24T14:22:15;7.60;77.50
5808;DHT22;2930;42.678;23.312;2022-11-24T14:24:43;7.60;77.50
5808;DHT22;2930;42.678;23.312;2022-11-24T14:27:16;7.60;77.30
5808;DHT22;2930;42.678;23.312;2022-11-24T14:29:52;7.50;77.60
5808;DHT22;2930;42.678;23.312;2022-11-24T14:32:18;7.60;77.70
5808;DHT22;2930;42.678;23.312;2022-11-24T14:34:46;7.60;77.00
5808;DHT22;2930;42.678;23.312;2022-11-24T14:37:12;7.60;77.30
5808;DHT22;2930;42.678;23.312;2022-11-24T14:39:41;7.60;77.00
5808;DHT22;2930;42.678;23.312;2022-11-24T14:42:23;7.70;77.00
5808;DHT22;2930;42.678;23.312;2022-11-24T14:47:30;7.70;76.80
5808;DHT22;2930;42.678;23.312;2022-11-24T14:49:58;7.80;76.50
5808;DHT22;2930;42.678;23.312;2022-11-24T14:52:30;7.80;76.60
5808;DHT22;2930;42.678;23.312;2022-11-24T14:54:57;7.80;76.50
5808;DHT22;2930;42.678;23.312;2022-11-24T14:57:32;7.80;76.60
5808;DHT22;2930;42.678;23.312;2022-11-24T15:02:52;7.80;76.70
5808;DHT22;2930;42.678;23.312;2022-11-24T15:05:20;7.80;76.80
5808;DHT22;2930;42.678;23.312;2022-11-24T15:07:47;7.80;76.80
5808;DHT22;2930;42.678;23.312;2022-11-24T15:10:34;7.90;76.90
5808;DHT22;2930;42.678;23.312;2022-11-24T15:13:03;7.90;77.00
5808;DHT22;2930;42.678;23.312;2022-11-24T15:15:34;7.90;77.00
5808;DHT22;2930;42.678;23.312;2022-11-24T15:18:02;7.80;76.90
5808;DHT22;2930;42.678;23.312;2022-11-24T15:20:36;7.80;77.20
5808;DHT22;2930;42.678;23.312;2022-11-24T15:25:53;7.80;77.40
5808;DHT22;2930;42.678;23.312;2022-11-24T15:28:20;7.70;77.60
5808;DHT22;2930;42.678;23.312;2022-11-24T15:30:53;7.80;77.60
5808;DHT22;2930;42.678;23.312;2022-11-24T15:33:21;7.70;77.60
5808;DHT22;2930;42.678;23.312;2022-11-24T15:35:47;7.70;77.70
5808;DHT22;2930;42.678;23.312;2022-11-24T15:38:13;7.70;77.60
5808;DHT22;2930;42.678;23.312;2022-11-24T15:40:41;7.70;77.70
5808;DHT22;2930;42.678;23.312;2022-11-24T15:45:42;7.50;78.20
5808;DHT22;2930;42.678;23.312;2022-11-24T15:48:08;7.60;78.20
5808;DHT22;2930;42.678;23.312;2022-11-24T15:50:35;7.60;78.30
5808;DHT22;2930;42.678;23.312;2022-11-24T15:53:02;7.60;78.10
5808;DHT22;2930;42.678;23.312;2022-11-24T15:55:27;7.50;78.00
5808;DHT22;2930;42.678;23.312;2022-11-24T15:57:53;7.40;78.30
5808;DHT22;2930;42.678;23.312;2022-11-24T16:00:21;7.40;78.50
5808;DHT22;2930;42.678;23.312;2022-11-24T16:02:47;7.50;78.50
5808;DHT22;2930;42.678;23.312;2022-11-24T16:05:14;7.50;78.50
5808;DHT22;2930;42.678;23.312;2022-11-24T16:07:41;7.50;78.50
5808;DHT22;2930;42.678;23.312;2022-11-24T16:10:23;7.50;78.50
5808;DHT22;2930;42.678;23.312;2022-11-24T16:12:49;7.50;78.50
5808;DHT22;2930;42.678;23.312;2022-11-24T16:15:15;7.40;78.70
5808;DHT22;2930;42.678;23.312;2022-11-24T16:17:40;7.20;79.30
5808;DHT22;2930;42.678;23.312;2022-11-24T16:20:06;7.20;79.50
5808;DHT22;2930;42.678;23.312;2022-11-24T16:22:32;7.30;79.60
5808;DHT22;2930;42.678;23.312;2022-11-24T16:24:58;7.30;79.40
5808;DHT22;2930;42.678;23.312;2022-11-24T16:27:24;7.30;79.70
5808;DHT22;2930;42.678;23.312;2022-11-24T16:29:50;7.20;79.80
5808;DHT22;2930;42.678;23.312;2022-11-24T16:32:15;7.30;79.80
5808;DHT22;2930;42.678;23.312;2022-11-24T16:34:41;7.40;79.70
5808;DHT22;2930;42.678;23.312;2022-11-24T16:37:07;7.30;80.00
5808;DHT22;2930;42.678;23.312;2022-11-24T16:39:32;7.30;80.20
5808;DHT22;2930;42.678;23.312;2022-11-24T16:41:58;7.30;80.10
5808;DHT22;2930;42.678;23.312;2022-11-24T16:44:24;7.30;80.10
5808;DHT22;2930;42.678;23.312;2022-11-24T16:46:49;7.30;80.30
5808;DHT22;2930;42.678;23.312;2022-11-24T16:49:15;7.20;80.70
5808;DHT22;2930;42.678;23.312;2022-11-24T16:51:41;7.10;81.00
5808;DHT22;2930;42.678;23.312;2022-11-24T16:54:07;7.10;80.90
5808;DHT22;2930;42.678;23.312;2022-11-24T16:56:33;7.10;81.40
5808;DHT22;2930;42.678;23.312;2022-11-24T16:58:59;7.10;81.30
5808;DHT22;2930;42.678;23.312;2022-11-24T17:01:25;7.00;81.60
5808;DHT22;2930;42.678;23.312;2022-11-24T17:03:51;7.10;81.40
5808;DHT22;2930;42.678;23.312;2022-11-24T17:06:16;7.10;81.10
5808;DHT22;2930;42.678;23.312;2022-11-24T17:08:44;7.10;81.10
5808;DHT22;2930;42.678;23.312;2022-11-24T17:13:38;7.20;81.00
5808;DHT22;2930;42.678;23.312;2022-11-24T17:16:12;7.20;80.90
5808;DHT22;2930;42.678;23.312;2022-11-24T17:18:38;7.30;80.90
5808;DHT22;2930;42.678;23.312;2022-11-24T17:21:05;7.30;80.90
5808;DHT22;2930;42.678;23.312;2022-11-24T17:23:31;7.30;80.90
5808;DHT22;2930;42.678;23.312;2022-11-24T17:26:04;7.20;81.10
5808;DHT22;2930;42.678;23.312;2022-11-24T17:28:30;7.20;81.30
5808;DHT22;2930;42.678;23.312;2022-11-24T17:30:56;7.20;81.00
5808;DHT22;2930;42.678;23.312;2022-11-24T17:33:22;7.30;80.80
5808;DHT22;2930;42.678;23.312;2022-11-24T17:35:47;7.30;80.90
5808;DHT22;2930;42.678;23.312;2022-11-24T17:38:13;7.40;80.80
5808;DHT22;2930;42.678;23.312;2022-11-24T17:40:39;7.40;80.70
5808;DHT22;2930;42.678;23.312;2022-11-24T17:43:04;7.40;80.50
5808;DHT22;2930;42.678;23.312;2022-11-24T17:45:30;7.40;80.60
5808;DHT22;2930;42.678;23.312;2022-11-24T17:47:59;7.40;80.60
5808;DHT22;2930;42.678;23.312;2022-11-24T17:50:25;7.40;80.50
5808;DHT22;2930;42.678;23.312;2022-11-24T17:52:51;7.40;80.50
5808;DHT22;2930;42.678;23.312;2022-11-24T17:55:17;7.40;80.40
5808;DHT22;2930;42.678;23.312;2022-11-24T17:57:42;7.30;80.30
5808;DHT22;2930;42.678;23.312;2022-11-24T18:00:09;7.20;80.40
5808;DHT22;2930;42.678;23.312;2022-11-24T18:02:37;7.20;80.40
5808;DHT22;2930;42.678;23.312;2022-11-24T18:05:03;7.30;80.20
5808;DHT22;2930;42.678;23.312;2022-11-24T18:07:28;7.30;80.20
5808;DHT22;2930;42.678;23.312;2022-11-24T18:09:54;7.30;80.20
5808;DHT22;2930;42.678;23.312;2022-11-24T18:12:20;7.30;80.00
5808;DHT22;2930;42.678;23.312;2022-11-24T18:14:45;7.30;80.00
5808;DHT22;2930;42.678;23.312;2022-11-24T18:17:11;7.30;79.80
5808;DHT22;2930;42.678;23.312;2022-11-24T18:19:37;7.30;79.90
5808;DHT22;2930;42.678;23.312;2022-11-24T18:22:02;7.20;79.40
5808;DHT22;2930;42.678;23.312;2022-11-24T18:24:28;7.10;79.60
5808;DHT22;2930;42.678;23.312;2022-11-24T18:26:54;7.20;79.70
5808;DHT22;2930;42.678;23.312;2022-11-24T18:29:20;7.30;79.50
5808;DHT22;2930;42.678;23.312;2022-11-24T18:31:46;7.30;79.50
5808;DHT22;2930;42.678;23.312;2022-11-24T18:34:11;7.40;79.60
5808;DHT22;2930;42.678;23.312;2022-11-24T18:36:37;7.40;79.30
5808;DHT22;2930;42.678;23.312;2022-11-24T18:39:04;7.30;79.30
5808;DHT22;2930;42.678;23.312;2022-11-24T18:41:30;7.30;79.50
5808;DHT22;2930;42.678;23.312;2022-11-24T18:43:56;7.20;79.60
5808;DHT22;2930;42.678;23.312;2022-11-24T18:46:24;7.40;79.60
5808;DHT22;2930;42.678;23.312;2022-11-24T18:48:50;7.40;79.40
5808;DHT22;2930;42.678;23.312;2022-11-24T18:51:17;7.40;79.30
5808;DHT22;2930;42.678;23.312;2022-11-24T18:53:45;7.20;79.60